sensor_id;sensor_type;location;lat;lon;timestamp;temperature;humidity
76203;DHT22;64985;46.364;17.008;2024-01-11T00:01:45;-8.20;99.90
76203;DHT22;64985;46.364;17.008;2024-01-11T00:04:48;-8.20;99.90
76203;DHT22;64985;46.364;17.008;2024-01-11T00:07:50;-8.20;99.90
76203;DHT22;64985;46.364;17.008;2024-01-11T00:10:53;-8.20;99.90
76203;DHT22;64985;46.364;17.008;2024-01-11T00:13:57;-8.20;99.90
76203;DHT22;64985;46.364;17.008;2024-01-11T00:16:59;-8.20;99.90
76203;DHT22;64985;46.364;17.008;2024-01-11T00:20:02;-8.30;99.90
76203;DHT22;64985;46.364;17.008;2024-01-11T00:23:05;-8.30;99.90
76203;DHT22;64985;46.364;17.008;2024-01-11T00:26:07;-8.30;99.90
76203;DHT22;64985;46.364;17.008;2024-01-11T00:29:09;-8.20;99.90
76203;DHT22;64985;46.364;17.008;2024-01-11T00:32:11;-8.30;99.90
76203;DHT22;64985;46.364;17.008;2024-01-11T00:35:14;-8.20;99.90
76203;DHT22;64985;46.364;17.008;2024-01-11T00:38:16;-8.20;99.90
76203;DHT22;64985;46.364;17.008;2024-01-11T00:41:19;-8.20;99.90
76203;DHT22;64985;46.364;17.008;2024-01-11T00:44:22;-8.10;99.90
76203;DHT22;64985;46.364;17.008;2024-01-11T00:47:24;-8.20;99.90
76203;DHT22;64985;46.364;17.008;2024-01-11T00:50:26;-8.10;99.90
76203;DHT22;64985;46.364;17.008;2024-01-11T00:53:29;-8.00;99.90
76203;DHT22;64985;46.364;17.008;2024-01-11T00:56:33;-8.00;99.90
76203;DHT22;64985;46.364;17.008;2024-01-11T00:59:35;-7.90;99.90
76203;DHT22;64985;46.364;17.008;2024-01-11T01:02:38;-7.90;99.90
76203;DHT22;64985;46.364;17.008;2024-01-11T01:05:41;-8.00;99.90
76203;DHT22;64985;46.364;17.008;2024-01-11T01:08:43;-8.00;99.90
76203;DHT22;64985;46.364;17.008;2024-01-11T01:11:45;-8.10;99.90
76203;DHT22;64985;46.364;17.008;2024-01-11T01:14:47;-8.10;99.90
76203;DHT22;64985;46.364;17.008;2024-01-11T01:17:50;-8.10;99.90
76203;DHT22;64985;46.364;17.008;2024-01-11T01:20:52;-8.10;99.90
76203;DHT22;64985;46.364;17.008;2024-01-11T01:23:54;-8.10;99.90
76203;DHT22;64985;46.364;17.008;2024-01-11T01:26:56;-8.10;99.90
76203;DHT22;64985;46.364;17.008;2024-01-11T01:29:58;-8.20;99.90
76203;DHT22;64985;46.364;17.008;2024-01-11T01:33:01;-8.20;99.90
76203;DHT22;64985;46.364;17.008;2024-01-11T01:36:04;-8.30;99.90
76203;DHT22;64985;46.364;17.008;2024-01-11T01:39:09;-8.20;99.90
76203;DHT22;64985;46.364;17.008;2024-01-11T01:42:11;-8.30;99.90
76203;DHT22;64985;46.364;17.008;2024-01-11T01:45:15;-8.30;99.90
76203;DHT22;64985;46.364;17.008;2024-01-11T01:48:17;-8.30;99.90
76203;DHT22;64985;46.364;17.008;2024-01-11T01:51:20;-8.30;99.90
76203;DHT22;64985;46.364;17.008;2024-01-11T01:54:24;-8.30;99.90
76203;DHT22;64985;46.364;17.008;2024-01-11T01:57:26;-8.30;99.90
76203;DHT22;64985;46.364;17.008;2024-01-11T02:00:29;-8.30;99.90
76203;DHT22;64985;46.364;17.008;2024-01-11T02:03:34;-8.40;99.90
76203;DHT22;64985;46.364;17.008;2024-01-11T02:06:37;-8.30;99.90
76203;DHT22;64985;46.364;17.008;2024-01-11T02:09:40;-8.30;99.90
76203;DHT22;64985;46.364;17.008;2024-01-11T02:12:43;-8.30;99.90
76203;DHT22;64985;46.364;17.008;2024-01-11T02:15:45;-8.20;99.90
76203;DHT22;64985;46.364;17.008;2024-01-11T02:18:48;-8.30;99.90
76203;DHT22;64985;46.364;17.008;2024-01-11T02:21:52;-8.30;99.90
76203;DHT22;64985;46.364;17.008;2024-01-11T02:24:56;-8.30;99.90
76203;DHT22;64985;46.364;17.008;2024-01-11T02:28:00;-8.30;99.90
76203;DHT22;64985;46.364;17.008;2024-01-11T02:31:02;-8.40;99.90
76203;DHT22;64985;46.364;17.008;2024-01-11T02:34:04;-8.50;99.90
76203;DHT22;64985;46.364;17.008;2024-01-11T02:37:07;-8.50;99.90
76203;DHT22;64985;46.364;17.008;2024-01-11T02:40:10;-8.60;99.90
76203;DHT22;64985;46.364;17.008;2024-01-11T02:43:12;-8.60;99.90
76203;DHT22;64985;46.364;17.008;2024-01-11T02:46:16;-8.70;99.90
76203;DHT22;64985;46.364;17.008;2024-01-11T02:49:19;-8.70;99.90
76203;DHT22;64985;46.364;17.008;2024-01-11T02:52:23;-8.70;99.90
76203;DHT22;64985;46.364;17.008;2024-01-11T02:55:25;-8.70;99.90
76203;DHT22;64985;46.364;17.008;2024-01-11T02:58:27;-8.70;99.90
76203;DHT22;64985;46.364;17.008;2024-01-11T03:01:30;-8.70;99.90
76203;DHT22;64985;46.364;17.008;2024-01-11T03:04:32;-8.80;99.90
76203;DHT22;64985;46.364;17.008;2024-01-11T03:07:35;-8.80;99.90
76203;DHT22;64985;46.364;17.008;2024-01-11T03:10:37;-8.80;99.90
76203;DHT22;64985;46.364;17.008;2024-01-11T03:13:42;-8.80;99.90
76203;DHT22;64985;46.364;17.008;2024-01-11T03:16:45;-8.80;99.90
76203;DHT22;64985;46.364;17.008;2024-01-11T03:19:47;-8.80;99.90
76203;DHT22;64985;46.364;17.008;2024-01-11T03:22:50;-8.80;99.90
76203;DHT22;64985;46.364;17.008;2024-01-11T03:25:52;-8.80;99.90
76203;DHT22;64985;46.364;17.008;2024-01-11T03:28:54;-8.90;99.90
76203;DHT22;64985;46.364;17.008;2024-01-11T03:31:57;-8.90;99.90
76203;DHT22;64985;46.364;17.008;2024-01-11T03:34:59;-8.90;99.90
76203;DHT22;64985;46.364;17.008;2024-01-11T03:38:02;-9.00;99.90
76203;DHT22;64985;46.364;17.008;2024-01-11T03:41:08;-9.00;99.90
76203;DHT22;64985;46.364;17.008;2024-01-11T03:44:12;-9.00;99.90
76203;DHT22;64985;46.364;17.008;2024-01-11T03:47:14;-9.00;99.90
76203;DHT22;64985;46.364;17.008;2024-01-11T03:50:17;-9.10;99.90
76203;DHT22;64985;46.364;17.008;2024-01-11T03:53:19;-9.10;99.90
76203;DHT22;64985;46.364;17.008;2024-01-11T03:56:22;-9.10;99.90
76203;DHT22;64985;46.364;17.008;2024-01-11T03:59:24;-9.10;99.90
76203;DHT22;64985;46.364;17.008;2024-01-11T04:02:27;-9.10;99.90
76203;DHT22;64985;46.364;17.008;2024-01-11T04:05:29;-9.10;99.90
76203;DHT22;64985;46.364;17.008;2024-01-11T04:08:31;-9.00;99.90
76203;DHT22;64985;46.364;17.008;2024-01-11T04:11:33;-9.00;99.90
76203;DHT22;64985;46.364;17.008;2024-01-11T04:14:39;-8.90;99.90
76203;DHT22;64985;46.364;17.008;2024-01-11T04:17:44;-8.90;99.90
76203;DHT22;64985;46.364;17.008;2024-01-11T04:20:47;-8.90;99.90
76203;DHT22;64985;46.364;17.008;2024-01-11T04:23:49;-9.00;99.90
76203;DHT22;64985;46.364;17.008;2024-01-11T04:26:52;-9.10;99.90
76203;DHT22;64985;46.364;17.008;2024-01-11T04:29:54;-9.10;99.90
76203;DHT22;64985;46.364;17.008;2024-01-11T04:32:56;-9.10;99.90
76203;DHT22;64985;46.364;17.008;2024-01-11T04:35:59;-9.20;99.90
76203;DHT22;64985;46.364;17.008;2024-01-11T04:39:01;-9.20;99.90
76203;DHT22;64985;46.364;17.008;2024-01-11T04:42:03;-9.30;99.90
76203;DHT22;64985;46.364;17.008;2024-01-11T04:45:06;-9.30;99.90
76203;DHT22;64985;46.364;17.008;2024-01-11T04:48:08;-9.30;99.90
76203;DHT22;64985;46.364;17.008;2024-01-11T04:51:12;-9.20;99.90
76203;DHT22;64985;46.364;17.008;2024-01-11T04:54:15;-9.20;99.90
76203;DHT22;64985;46.364;17.008;2024-01-11T04:57:17;-9.30;99.90
76203;DHT22;64985;46.364;17.008;2024-01-11T05:00:19;-9.30;99.90
76203;DHT22;64985;46.364;17.008;2024-01-11T05:03:21;-9.30;99.90
76203;DHT22;64985;46.364;17.008;2024-01-11T05:06:23;-9.30;99.90
76203;DHT22;64985;46.364;17.008;2024-01-11T05:09:26;-9.20;99.90
76203;DHT22;64985;46.364;17.008;2024-01-11T05:12:29;-9.30;99.90
76203;DHT22;64985;46.364;17.008;2024-01-11T05:15:31;-9.30;99.90
76203;DHT22;64985;46.364;17.008;2024-01-11T05:18:33;-9.20;99.90
76203;DHT22;64985;46.364;17.008;2024-01-11T05:21:36;-9.30;99.90
76203;DHT22;64985;46.364;17.008;2024-01-11T05:24:38;-9.30;99.90
76203;DHT22;64985;46.364;17.008;2024-01-11T05:27:41;-9.40;99.90
76203;DHT22;64985;46.364;17.008;2024-01-11T05:30:43;-9.40;99.90
76203;DHT22;64985;46.364;17.008;2024-01-11T05:33:45;-9.50;99.90
76203;DHT22;64985;46.364;17.008;2024-01-11T05:36:50;-9.40;99.90
76203;DHT22;64985;46.364;17.008;2024-01-11T05:39:52;-9.50;99.90
76203;DHT22;64985;46.364;17.008;2024-01-11T05:42:56;-9.50;99.90
76203;DHT22;64985;46.364;17.008;2024-01-11T05:45:58;-9.60;99.90
76203;DHT22;64985;46.364;17.008;2024-01-11T05:49:00;-9.60;99.90
76203;DHT22;64985;46.364;17.008;2024-01-11T05:52:03;-9.50;99.90
76203;DHT22;64985;46.364;17.008;2024-01-11T05:55:06;-9.50;99.90
76203;DHT22;64985;46.364;17.008;2024-01-11T05:58:08;-9.50;99.90
76203;DHT22;64985;46.364;17.008;2024-01-11T06:01:10;-9.50;99.90
76203;DHT22;64985;46.364;17.008;2024-01-11T06:04:13;-9.50;99.90
76203;DHT22;64985;46.364;17.008;2024-01-11T06:07:15;-9.60;99.90
76203;DHT22;64985;46.364;17.008;2024-01-11T06:10:18;-9.70;99.90
76203;DHT22;64985;46.364;17.008;2024-01-11T06:13:20;-9.60;99.90
76203;DHT22;64985;46.364;17.008;2024-01-11T06:16:22;-9.60;99.90
76203;DHT22;64985;46.364;17.008;2024-01-11T06:19:24;-9.70;99.90
76203;DHT22;64985;46.364;17.008;2024-01-11T06:22:27;-9.60;99.90
76203;DHT22;64985;46.364;17.008;2024-01-11T06:25:29;-9.70;99.90
76203;DHT22;64985;46.364;17.008;2024-01-11T06:28:32;-9.70;99.90
76203;DHT22;64985;46.364;17.008;2024-01-11T06:31:37;-9.70;99.90
76203;DHT22;64985;46.364;17.008;2024-01-11T06:34:39;-9.70;99.90
76203;DHT22;64985;46.364;17.008;2024-01-11T06:37:47;-9.70;99.90
76203;DHT22;64985;46.364;17.008;2024-01-11T06:40:49;-9.60;99.90
76203;DHT22;64985;46.364;17.008;2024-01-11T06:43:52;-9.70;99.90
76203;DHT22;64985;46.364;17.008;2024-01-11T06:46:54;-9.70;99.90
76203;DHT22;64985;46.364;17.008;2024-01-11T06:49:57;-9.70;99.90
76203;DHT22;64985;46.364;17.008;2024-01-11T06:53:00;-9.60;99.90
76203;DHT22;64985;46.364;17.008;2024-01-11T06:56:02;-9.60;99.90
76203;DHT22;64985;46.364;17.008;2024-01-11T06:59:04;-9.60;99.90
76203;DHT22;64985;46.364;17.008;2024-01-11T07:02:07;-9.60;99.90
76203;DHT22;64985;46.364;17.008;2024-01-11T07:05:09;-9.50;99.90
76203;DHT22;64985;46.364;17.008;2024-01-11T07:08:11;-9.50;99.90
76203;DHT22;64985;46.364;17.008;2024-01-11T07:11:14;-9.50;99.90
76203;DHT22;64985;46.364;17.008;2024-01-11T07:14:16;-9.40;99.90
76203;DHT22;64985;46.364;17.008;2024-01-11T07:17:18;-9.30;99.90
76203;DHT22;64985;46.364;17.008;2024-01-11T07:20:20;-9.20;99.90
76203;DHT22;64985;46.364;17.008;2024-01-11T07:23:23;-9.20;99.90
76203;DHT22;64985;46.364;17.008;2024-01-11T07:26:26;-9.20;99.90
76203;DHT22;64985;46.364;17.008;2024-01-11T07:29:29;-9.10;99.90
76203;DHT22;64985;46.364;17.008;2024-01-11T07:32:31;-9.00;99.90
76203;DHT22;64985;46.364;17.008;2024-01-11T07:35:33;-8.90;99.90
76203;DHT22;64985;46.364;17.008;2024-01-11T07:38:35;-8.80;99.90
76203;DHT22;64985;46.364;17.008;2024-01-11T07:41:38;-8.70;99.90
76203;DHT22;64985;46.364;17.008;2024-01-11T07:44:40;-8.60;99.90
76203;DHT22;64985;46.364;17.008;2024-01-11T07:47:43;-8.50;99.90
76203;DHT22;64985;46.364;17.008;2024-01-11T07:50:46;-8.40;99.90
76203;DHT22;64985;46.364;17.008;2024-01-11T07:53:48;-8.20;99.90
76203;DHT22;64985;46.364;17.008;2024-01-11T07:56:50;-7.90;99.90
76203;DHT22;64985;46.364;17.008;2024-01-11T07:59:52;-7.30;99.90
76203;DHT22;64985;46.364;17.008;2024-01-11T08:02:55;-6.50;99.90
76203;DHT22;64985;46.364;17.008;2024-01-11T08:05:57;-5.60;99.90
76203;DHT22;64985;46.364;17.008;2024-01-11T08:09:00;-4.80;99.90
76203;DHT22;64985;46.364;17.008;2024-01-11T08:12:02;-4.30;99.90
76203;DHT22;64985;46.364;17.008;2024-01-11T08:15:05;-3.60;99.90
76203;DHT22;64985;46.364;17.008;2024-01-11T08:18:07;-3.00;99.90
76203;DHT22;64985;46.364;17.008;2024-01-11T08:21:10;-2.50;99.90
76203;DHT22;64985;46.364;17.008;2024-01-11T08:24:12;-2.10;99.90
76203;DHT22;64985;46.364;17.008;2024-01-11T08:27:15;-1.70;99.90
76203;DHT22;64985;46.364;17.008;2024-01-11T08:30:19;-1.30;99.90
76203;DHT22;64985;46.364;17.008;2024-01-11T08:33:22;-0.80;99.90
76203;DHT22;64985;46.364;17.008;2024-01-11T08:36:24;-0.10;99.90
76203;DHT22;64985;46.364;17.008;2024-01-11T08:39:27;0.60;99.90
76203;DHT22;64985;46.364;17.008;2024-01-11T08:42:29;0.80;99.90
76203;DHT22;64985;46.364;17.008;2024-01-11T08:45:31;0.70;99.90
76203;DHT22;64985;46.364;17.008;2024-01-11T08:48:33;1.50;99.90
76203;DHT22;64985;46.364;17.008;2024-01-11T08:51:36;2.10;99.90
76203;DHT22;64985;46.364;17.008;2024-01-11T08:54:39;2.20;99.90
76203;DHT22;64985;46.364;17.008;2024-01-11T08:57:41;2.00;99.90
76203;DHT22;64985;46.364;17.008;2024-01-11T09:00:44;1.80;99.70
76203;DHT22;64985;46.364;17.008;2024-01-11T09:03:46;2.00;96.90
76203;DHT22;64985;46.364;17.008;2024-01-11T09:06:50;2.90;91.80
76203;DHT22;64985;46.364;17.008;2024-01-11T09:09:52;2.10;86.40
76203;DHT22;64985;46.364;17.008;2024-01-11T09:12:58;2.70;83.30
76203;DHT22;64985;46.364;17.008;2024-01-11T09:16:01;3.50;75.10
76203;DHT22;64985;46.364;17.008;2024-01-11T09:19:03;2.90;69.70
76203;DHT22;64985;46.364;17.008;2024-01-11T09:22:05;3.40;70.50
76203;DHT22;64985;46.364;17.008;2024-01-11T09:25:10;3.90;65.80
76203;DHT22;64985;46.364;17.008;2024-01-11T09:28:12;3.60;61.20
76203;DHT22;64985;46.364;17.008;2024-01-11T09:31:14;2.80;65.00
76203;DHT22;64985;46.364;17.008;2024-01-11T09:34:16;3.10;61.00
76203;DHT22;64985;46.364;17.008;2024-01-11T09:37:19;2.50;63.20
76203;DHT22;64985;46.364;17.008;2024-01-11T09:40:21;3.00;63.50
76203;DHT22;64985;46.364;17.008;2024-01-11T09:43:24;3.30;64.30
76203;DHT22;64985;46.364;17.008;2024-01-11T09:46:29;3.70;63.50
76203;DHT22;64985;46.364;17.008;2024-01-11T09:49:32;3.40;61.90
76203;DHT22;64985;46.364;17.008;2024-01-11T09:52:36;3.30;62.40
76203;DHT22;64985;46.364;17.008;2024-01-11T09:55:40;3.30;64.90
76203;DHT22;64985;46.364;17.008;2024-01-11T09:58:46;3.20;63.00
76203;DHT22;64985;46.364;17.008;2024-01-11T10:01:52;3.10;62.70
76203;DHT22;64985;46.364;17.008;2024-01-11T10:04:55;3.40;64.80
76203;DHT22;64985;46.364;17.008;2024-01-11T10:07:57;3.60;64.20
76203;DHT22;64985;46.364;17.008;2024-01-11T10:11:00;3.90;63.00
76203;DHT22;64985;46.364;17.008;2024-01-11T10:14:02;4.10;60.60
76203;DHT22;64985;46.364;17.008;2024-01-11T10:17:06;4.10;62.80
76203;DHT22;64985;46.364;17.008;2024-01-11T10:20:08;3.80;60.00
76203;DHT22;64985;46.364;17.008;2024-01-11T10:23:12;3.90;60.60
76203;DHT22;64985;46.364;17.008;2024-01-11T10:26:18;3.70;59.40
76203;DHT22;64985;46.364;17.008;2024-01-11T10:29:20;4.10;58.60
76203;DHT22;64985;46.364;17.008;2024-01-11T10:32:28;4.40;60.30
76203;DHT22;64985;46.364;17.008;2024-01-11T10:35:30;4.60;60.00
76203;DHT22;64985;46.364;17.008;2024-01-11T10:38:35;4.80;57.40
76203;DHT22;64985;46.364;17.008;2024-01-11T10:41:41;4.90;56.80
76203;DHT22;64985;46.364;17.008;2024-01-11T10:44:46;4.90;54.10
76203;DHT22;64985;46.364;17.008;2024-01-11T10:48:01;3.80;52.80
76203;DHT22;64985;46.364;17.008;2024-01-11T10:51:12;3.90;56.00
76203;DHT22;64985;46.364;17.008;2024-01-11T10:54:18;4.20;53.50
76203;DHT22;64985;46.364;17.008;2024-01-11T10:57:22;4.20;56.80
76203;DHT22;64985;46.364;17.008;2024-01-11T11:00:25;4.30;56.30
76203;DHT22;64985;46.364;17.008;2024-01-11T11:03:29;4.10;51.60
76203;DHT22;64985;46.364;17.008;2024-01-11T11:06:35;3.80;46.80
76203;DHT22;64985;46.364;17.008;2024-01-11T11:09:39;3.10;46.10
76203;DHT22;64985;46.364;17.008;2024-01-11T11:12:46;2.90;50.70
76203;DHT22;64985;46.364;17.008;2024-01-11T11:15:49;2.90;48.30
76203;DHT22;64985;46.364;17.008;2024-01-11T11:18:55;3.40;47.30
76203;DHT22;64985;46.364;17.008;2024-01-11T11:21:58;3.10;42.80
76203;DHT22;64985;46.364;17.008;2024-01-11T11:25:06;3.10;45.30
76203;DHT22;64985;46.364;17.008;2024-01-11T11:28:13;2.70;44.90
76203;DHT22;64985;46.364;17.008;2024-01-11T11:31:35;2.10;46.00
76203;DHT22;64985;46.364;17.008;2024-01-11T11:34:45;1.90;46.30
76203;DHT22;64985;46.364;17.008;2024-01-11T11:37:48;2.00;47.40
76203;DHT22;64985;46.364;17.008;2024-01-11T11:40:56;2.80;45.10
76203;DHT22;64985;46.364;17.008;2024-01-11T11:44:02;3.60;43.80
76203;DHT22;64985;46.364;17.008;2024-01-11T11:47:19;4.20;42.40
76203;DHT22;64985;46.364;17.008;2024-01-11T11:50:23;4.10;43.80
76203;DHT22;64985;46.364;17.008;2024-01-11T11:53:33;3.70;40.50
76203;DHT22;64985;46.364;17.008;2024-01-11T11:56:35;2.90;39.00
76203;DHT22;64985;46.364;17.008;2024-01-11T11:59:39;2.20;38.30
76203;DHT22;64985;46.364;17.008;2024-01-11T12:02:42;2.90;43.00
76203;DHT22;64985;46.364;17.008;2024-01-11T12:05:44;3.90;42.50
76203;DHT22;64985;46.364;17.008;2024-01-11T12:08:47;4.30;36.70
76203;DHT22;64985;46.364;17.008;2024-01-11T12:11:50;4.80;37.10
76203;DHT22;64985;46.364;17.008;2024-01-11T12:15:08;5.00;37.50
76203;DHT22;64985;46.364;17.008;2024-01-11T12:18:10;5.20;36.30
76203;DHT22;64985;46.364;17.008;2024-01-11T12:21:13;5.20;36.80
76203;DHT22;64985;46.364;17.008;2024-01-11T12:24:16;5.60;37.40
76203;DHT22;64985;46.364;17.008;2024-01-11T12:27:18;5.90;32.20
76203;DHT22;64985;46.364;17.008;2024-01-11T12:30:23;6.30;34.70
76203;DHT22;64985;46.364;17.008;2024-01-11T12:33:26;6.30;31.40
76203;DHT22;64985;46.364;17.008;2024-01-11T12:36:30;5.60;36.00
76203;DHT22;64985;46.364;17.008;2024-01-11T12:39:33;6.30;36.40
76203;DHT22;64985;46.364;17.008;2024-01-11T12:42:36;6.90;35.20
76203;DHT22;64985;46.364;17.008;2024-01-11T12:45:39;7.20;34.20
76203;DHT22;64985;46.364;17.008;2024-01-11T12:48:41;7.00;31.50
76203;DHT22;64985;46.364;17.008;2024-01-11T12:51:44;7.20;33.80
76203;DHT22;64985;46.364;17.008;2024-01-11T12:54:46;7.30;32.60
76203;DHT22;64985;46.364;17.008;2024-01-11T12:57:49;7.30;32.10
76203;DHT22;64985;46.364;17.008;2024-01-11T13:00:51;7.70;34.80
76203;DHT22;64985;46.364;17.008;2024-01-11T13:03:56;7.90;33.80
76203;DHT22;64985;46.364;17.008;2024-01-11T13:06:59;7.80;33.70
76203;DHT22;64985;46.364;17.008;2024-01-11T13:10:02;8.10;34.20
76203;DHT22;64985;46.364;17.008;2024-01-11T13:13:05;7.80;33.50
76203;DHT22;64985;46.364;17.008;2024-01-11T13:16:10;7.80;35.60
76203;DHT22;64985;46.364;17.008;2024-01-11T13:19:16;7.80;34.50
76203;DHT22;64985;46.364;17.008;2024-01-11T13:22:28;7.90;36.90
76203;DHT22;64985;46.364;17.008;2024-01-11T13:25:30;7.90;36.40
76203;DHT22;64985;46.364;17.008;2024-01-11T13:28:35;7.70;35.70
76203;DHT22;64985;46.364;17.008;2024-01-11T13:31:37;7.50;34.60
76203;DHT22;64985;46.364;17.008;2024-01-11T13:34:40;7.20;32.10
76203;DHT22;64985;46.364;17.008;2024-01-11T13:37:43;7.10;34.80
76203;DHT22;64985;46.364;17.008;2024-01-11T13:40:45;7.20;35.50
76203;DHT22;64985;46.364;17.008;2024-01-11T13:43:47;7.00;31.10
76203;DHT22;64985;46.364;17.008;2024-01-11T13:46:50;6.90;32.00
76203;DHT22;64985;46.364;17.008;2024-01-11T13:49:52;7.10;33.10
76203;DHT22;64985;46.364;17.008;2024-01-11T13:52:55;7.50;31.10
76203;DHT22;64985;46.364;17.008;2024-01-11T13:55:57;7.60;30.70
76203;DHT22;64985;46.364;17.008;2024-01-11T13:58:59;7.50;32.50
76203;DHT22;64985;46.364;17.008;2024-01-11T14:02:01;7.30;32.20
76203;DHT22;64985;46.364;17.008;2024-01-11T14:05:04;7.10;26.60
76203;DHT22;64985;46.364;17.008;2024-01-11T14:08:08;5.00;26.40
76203;DHT22;64985;46.364;17.008;2024-01-11T14:11:11;4.50;28.80
76203;DHT22;64985;46.364;17.008;2024-01-11T14:14:13;4.70;29.50
76203;DHT22;64985;46.364;17.008;2024-01-11T14:17:16;5.50;26.90
76203;DHT22;64985;46.364;17.008;2024-01-11T14:20:18;5.70;26.90
76203;DHT22;64985;46.364;17.008;2024-01-11T14:23:21;5.80;26.60
76203;DHT22;64985;46.364;17.008;2024-01-11T14:26:23;5.40;28.20
76203;DHT22;64985;46.364;17.008;2024-01-11T14:29:26;5.40;28.20
76203;DHT22;64985;46.364;17.008;2024-01-11T14:32:28;5.00;28.90
76203;DHT22;64985;46.364;17.008;2024-01-11T14:35:38;5.40;27.60
76203;DHT22;64985;46.364;17.008;2024-01-11T14:38:42;5.60;27.40
76203;DHT22;64985;46.364;17.008;2024-01-11T14:41:45;5.90;30.40
76203;DHT22;64985;46.364;17.008;2024-01-11T14:44:48;5.60;30.20
76203;DHT22;64985;46.364;17.008;2024-01-11T14:47:50;5.40;30.50
76203;DHT22;64985;46.364;17.008;2024-01-11T14:50:53;5.20;31.40
76203;DHT22;64985;46.364;17.008;2024-01-11T14:53:55;4.60;31.90
76203;DHT22;64985;46.364;17.008;2024-01-11T14:56:58;4.50;35.00
76203;DHT22;64985;46.364;17.008;2024-01-11T15:00:00;4.20;34.70
76203;DHT22;64985;46.364;17.008;2024-01-11T15:03:03;3.50;37.90
76203;DHT22;64985;46.364;17.008;2024-01-11T15:06:08;2.90;42.00
76203;DHT22;64985;46.364;17.008;2024-01-11T15:09:12;2.00;44.30
76203;DHT22;64985;46.364;17.008;2024-01-11T15:12:14;1.50;41.60
76203;DHT22;64985;46.364;17.008;2024-01-11T15:15:16;1.10;43.70
76203;DHT22;64985;46.364;17.008;2024-01-11T15:18:20;0.70;50.60
76203;DHT22;64985;46.364;17.008;2024-01-11T15:21:23;0.50;58.70
76203;DHT22;64985;46.364;17.008;2024-01-11T15:24:25;0.20;66.20
76203;DHT22;64985;46.364;17.008;2024-01-11T15:27:29;-0.20;73.20
76203;DHT22;64985;46.364;17.008;2024-01-11T15:30:32;-0.50;78.40
76203;DHT22;64985;46.364;17.008;2024-01-11T15:33:34;-0.80;83.70
76203;DHT22;64985;46.364;17.008;2024-01-11T15:36:38;-1.00;88.70
76203;DHT22;64985;46.364;17.008;2024-01-11T15:39:42;-1.00;90.60
76203;DHT22;64985;46.364;17.008;2024-01-11T15:42:44;-1.20;93.40
76203;DHT22;64985;46.364;17.008;2024-01-11T15:45:46;-1.40;93.80
76203;DHT22;64985;46.364;17.008;2024-01-11T15:48:48;-1.50;94.70
76203;DHT22;64985;46.364;17.008;2024-01-11T15:51:51;-1.50;92.30
76203;DHT22;64985;46.364;17.008;2024-01-11T15:54:53;-1.70;94.00
76203;DHT22;64985;46.364;17.008;2024-01-11T15:57:55;-2.00;95.90
76203;DHT22;64985;46.364;17.008;2024-01-11T16:01:04;-2.40;94.60
76203;DHT22;64985;46.364;17.008;2024-01-11T16:04:06;-2.60;96.40
76203;DHT22;64985;46.364;17.008;2024-01-11T16:07:08;-2.70;98.30
76203;DHT22;64985;46.364;17.008;2024-01-11T16:10:11;-2.70;99.60
76203;DHT22;64985;46.364;17.008;2024-01-11T16:13:13;-2.70;99.90
76203;DHT22;64985;46.364;17.008;2024-01-11T16:16:15;-2.80;99.90
76203;DHT22;64985;46.364;17.008;2024-01-11T16:19:18;-2.80;99.90
76203;DHT22;64985;46.364;17.008;2024-01-11T16:22:20;-2.80;99.90
76203;DHT22;64985;46.364;17.008;2024-01-11T16:25:23;-2.80;99.90
76203;DHT22;64985;46.364;17.008;2024-01-11T16:28:25;-2.90;99.90
76203;DHT22;64985;46.364;17.008;2024-01-11T16:31:27;-3.00;99.90
76203;DHT22;64985;46.364;17.008;2024-01-11T16:34:31;-3.10;99.90
76203;DHT22;64985;46.364;17.008;2024-01-11T16:37:33;-3.20;99.90
76203;DHT22;64985;46.364;17.008;2024-01-11T16:40:35;-3.30;99.90
76203;DHT22;64985;46.364;17.008;2024-01-11T16:43:38;-3.30;99.90
76203;DHT22;64985;46.364;17.008;2024-01-11T16:46:41;-3.30;99.90
76203;DHT22;64985;46.364;17.008;2024-01-11T16:49:43;-3.40;99.90
76203;DHT22;64985;46.364;17.008;2024-01-11T16:52:45;-3.60;99.90
76203;DHT22;64985;46.364;17.008;2024-01-11T16:55:47;-3.60;99.90
76203;DHT22;64985;46.364;17.008;2024-01-11T16:58:50;-3.60;99.90
76203;DHT22;64985;46.364;17.008;2024-01-11T17:01:52;-3.80;99.90
76203;DHT22;64985;46.364;17.008;2024-01-11T17:04:55;-4.00;99.90
76203;DHT22;64985;46.364;17.008;2024-01-11T17:07:57;-3.90;99.90
76203;DHT22;64985;46.364;17.008;2024-01-11T17:10:59;-4.00;99.90
76203;DHT22;64985;46.364;17.008;2024-01-11T17:14:02;-4.00;99.90
76203;DHT22;64985;46.364;17.008;2024-01-11T17:17:05;-4.20;99.90
76203;DHT22;64985;46.364;17.008;2024-01-11T17:20:09;-4.20;99.90
76203;DHT22;64985;46.364;17.008;2024-01-11T17:23:12;-4.10;99.90
76203;DHT22;64985;46.364;17.008;2024-01-11T17:26:17;-4.20;99.90
76203;DHT22;64985;46.364;17.008;2024-01-11T17:29:20;-4.20;99.90
76203;DHT22;64985;46.364;17.008;2024-01-11T17:32:24;-4.20;99.90
76203;DHT22;64985;46.364;17.008;2024-01-11T17:35:27;-4.30;99.90
76203;DHT22;64985;46.364;17.008;2024-01-11T17:38:29;-4.30;99.90
76203;DHT22;64985;46.364;17.008;2024-01-11T17:41:31;-4.30;99.90
76203;DHT22;64985;46.364;17.008;2024-01-11T17:44:36;-4.30;99.90
76203;DHT22;64985;46.364;17.008;2024-01-11T17:47:41;-4.40;99.90
76203;DHT22;64985;46.364;17.008;2024-01-11T17:50:45;-4.40;99.90
76203;DHT22;64985;46.364;17.008;2024-01-11T17:53:47;-4.40;99.90
76203;DHT22;64985;46.364;17.008;2024-01-11T17:56:53;-4.40;99.90
76203;DHT22;64985;46.364;17.008;2024-01-11T17:59:56;-4.50;99.90
76203;DHT22;64985;46.364;17.008;2024-01-11T18:02:58;-4.60;99.90
76203;DHT22;64985;46.364;17.008;2024-01-11T18:06:01;-4.70;99.90
76203;DHT22;64985;46.364;17.008;2024-01-11T18:09:03;-4.70;99.90
76203;DHT22;64985;46.364;17.008;2024-01-11T18:12:06;-4.70;99.90
76203;DHT22;64985;46.364;17.008;2024-01-11T18:15:09;-4.60;99.90
76203;DHT22;64985;46.364;17.008;2024-01-11T18:18:12;-4.60;99.90
76203;DHT22;64985;46.364;17.008;2024-01-11T18:21:16;-4.50;99.90
76203;DHT22;64985;46.364;17.008;2024-01-11T18:24:18;-4.50;99.90
76203;DHT22;64985;46.364;17.008;2024-01-11T18:27:20;-4.50;99.90
76203;DHT22;64985;46.364;17.008;2024-01-11T18:30:23;-4.50;99.90
76203;DHT22;64985;46.364;17.008;2024-01-11T18:33:25;-4.50;99.90
76203;DHT22;64985;46.364;17.008;2024-01-11T18:36:29;-4.60;99.90
76203;DHT22;64985;46.364;17.008;2024-01-11T18:39:32;-4.60;99.90
76203;DHT22;64985;46.364;17.008;2024-01-11T18:42:35;-4.60;99.90
76203;DHT22;64985;46.364;17.008;2024-01-11T18:45:37;-4.70;99.90
76203;DHT22;64985;46.364;17.008;2024-01-11T18:48:40;-4.60;99.90
76203;DHT22;64985;46.364;17.008;2024-01-11T18:51:42;-4.60;99.90
76203;DHT22;64985;46.364;17.008;2024-01-11T18:54:46;-4.60;99.90
76203;DHT22;64985;46.364;17.008;2024-01-11T18:57:59;-4.60;99.90
76203;DHT22;64985;46.364;17.008;2024-01-11T19:01:01;-4.60;99.90
76203;DHT22;64985;46.364;17.008;2024-01-11T19:04:10;-4.70;99.90